sensor_id;sensor_type;location;lat;lon;timestamp;temperature;humidity
9179;DHT22;4624;48.126;11.546;2022-12-18T00:00:46;-3.30;99.90
9179;DHT22;4624;48.126;11.546;2022-12-18T00:03:13;-3.30;99.90
9179;DHT22;4624;48.126;11.546;2022-12-18T00:05:46;-3.30;99.90
9179;DHT22;4624;48.126;11.546;2022-12-18T00:08:14;-3.40;99.90
9179;DHT22;4624;48.126;11.546;2022-12-18T00:10:41;-3.50;99.90
9179;DHT22;4624;48.126;11.546;2022-12-18T00:13:08;-3.50;99.90
9179;DHT22;4624;48.126;11.546;2022-12-18T00:15:37;-3.50;99.90
9179;DHT22;4624;48.126;11.546;2022-12-18T00:18:05;-3.50;99.90
9179;DHT22;4624;48.126;11.546;2022-12-18T00:20:36;-3.50;99.90
9179;DHT22;4624;48.126;11.546;2022-12-18T00:23:04;-3.60;99.90
9179;DHT22;4624;48.126;11.546;2022-12-18T00:25:33;-3.60;99.90
9179;DHT22;4624;48.126;11.546;2022-12-18T00:28:00;-3.60;99.90
9179;DHT22;4624;48.126;11.546;2022-12-18T00:30:27;-3.60;99.90
9179;DHT22;4624;48.126;11.546;2022-12-18T00:32:55;-3.60;99.90
9179;DHT22;4624;48.126;11.546;2022-12-18T00:35:22;-3.60;99.90
9179;DHT22;4624;48.126;11.546;2022-12-18T00:37:49;-3.60;99.90
9179;DHT22;4624;48.126;11.546;2022-12-18T00:40:15;-3.50;99.90
9179;DHT22;4624;48.126;11.546;2022-12-18T00:42:42;-3.50;99.90
9179;DHT22;4624;48.126;11.546;2022-12-18T00:45:28;-3.50;99.90
9179;DHT22;4624;48.126;11.546;2022-12-18T00:47:57;-3.50;99.90
9179;DHT22;4624;48.126;11.546;2022-12-18T00:50:25;-3.40;99.90
9179;DHT22;4624;48.126;11.546;2022-12-18T00:52:52;-3.40;99.90
9179;DHT22;4624;48.126;11.546;2022-12-18T00:55:18;-3.40;99.90
9179;DHT22;4624;48.126;11.546;2022-12-18T00:57:45;-3.40;99.90
9179;DHT22;4624;48.126;11.546;2022-12-18T01:00:14;-3.40;99.90
9179;DHT22;4624;48.126;11.546;2022-12-18T01:02:41;-3.30;99.90
9179;DHT22;4624;48.126;11.546;2022-12-18T01:05:10;-3.30;99.90
9179;DHT22;4624;48.126;11.546;2022-12-18T01:07:37;-3.40;99.90
9179;DHT22;4624;48.126;11.546;2022-12-18T01:10:05;-3.40;99.90
9179;DHT22;4624;48.126;11.546;2022-12-18T01:12:32;-3.30;99.90
9179;DHT22;4624;48.126;11.546;2022-12-18T01:14:59;-3.40;99.90
9179;DHT22;4624;48.126;11.546;2022-12-18T01:17:26;-3.40;99.90
9179;DHT22;4624;48.126;11.546;2022-12-18T01:19:53;-3.40;99.90
9179;DHT22;4624;48.126;11.546;2022-12-18T01:22:21;-3.40;99.90
9179;DHT22;4624;48.126;11.546;2022-12-18T01:24:48;-3.50;99.90
9179;DHT22;4624;48.126;11.546;2022-12-18T01:27:15;-3.50;99.90
9179;DHT22;4624;48.126;11.546;2022-12-18T01:29:41;-3.50;99.90
9179;DHT22;4624;48.126;11.546;2022-12-18T01:32:08;-3.50;99.90
9179;DHT22;4624;48.126;11.546;2022-12-18T01:34:35;-3.50;99.90
9179;DHT22;4624;48.126;11.546;2022-12-18T01:37:03;-3.50;99.90
9179;DHT22;4624;48.126;11.546;2022-12-18T01:39:32;-3.50;99.90
9179;DHT22;4624;48.126;11.546;2022-12-18T01:41:59;-3.50;99.90
9179;DHT22;4624;48.126;11.546;2022-12-18T01:44:55;-3.40;99.90
9179;DHT22;4624;48.126;11.546;2022-12-18T01:47:26;-3.50;99.90
9179;DHT22;4624;48.126;11.546;2022-12-18T01:49:54;-3.50;99.90
9179;DHT22;4624;48.126;11.546;2022-12-18T01:52:22;-3.50;99.90
9179;DHT22;4624;48.126;11.546;2022-12-18T01:54:53;-3.50;99.90
9179;DHT22;4624;48.126;11.546;2022-12-18T01:57:21;-3.50;99.90
9179;DHT22;4624;48.126;11.546;2022-12-18T01:59:52;-3.50;99.90
9179;DHT22;4624;48.126;11.546;2022-12-18T02:02:20;-3.50;99.90
9179;DHT22;4624;48.126;11.546;2022-12-18T02:04:47;-3.50;99.90
9179;DHT22;4624;48.126;11.546;2022-12-18T02:07:20;-3.50;99.90
9179;DHT22;4624;48.126;11.546;2022-12-18T02:09:54;-3.60;99.90
9179;DHT22;4624;48.126;11.546;2022-12-18T02:12:25;-3.60;99.90
9179;DHT22;4624;48.126;11.546;2022-12-18T02:14:59;-3.60;99.90
9179;DHT22;4624;48.126;11.546;2022-12-18T02:17:32;-3.60;99.90
9179;DHT22;4624;48.126;11.546;2022-12-18T02:20:11;-3.60;99.90
9179;DHT22;4624;48.126;11.546;2022-12-18T02:22:45;-3.60;99.90
9179;DHT22;4624;48.126;11.546;2022-12-18T02:25:26;-3.70;99.90
9179;DHT22;4624;48.126;11.546;2022-12-18T02:27:59;-3.70;99.90
9179;DHT22;4624;48.126;11.546;2022-12-18T02:30:29;-3.70;99.90
9179;DHT22;4624;48.126;11.546;2022-12-18T02:32:59;-3.70;99.90
9179;DHT22;4624;48.126;11.546;2022-12-18T02:35:29;-3.70;99.90
9179;DHT22;4624;48.126;11.546;2022-12-18T02:37:57;-3.70;99.90
9179;DHT22;4624;48.126;11.546;2022-12-18T02:40:26;-3.70;99.90
9179;DHT22;4624;48.126;11.546;2022-12-18T02:42:53;-3.80;99.90
9179;DHT22;4624;48.126;11.546;2022-12-18T02:45:21;-3.80;99.90
9179;DHT22;4624;48.126;11.546;2022-12-18T02:47:49;-3.80;99.90
9179;DHT22;4624;48.126;11.546;2022-12-18T02:50:20;-3.90;99.90
9179;DHT22;4624;48.126;11.546;2022-12-18T02:52:56;-3.90;99.90
9179;DHT22;4624;48.126;11.546;2022-12-18T02:55:32;-3.80;99.90
9179;DHT22;4624;48.126;11.546;2022-12-18T02:58:07;-3.80;99.90
9179;DHT22;4624;48.126;11.546;2022-12-18T03:00:41;-3.80;99.90
9179;DHT22;4624;48.126;11.546;2022-12-18T03:03:14;-3.80;99.90
9179;DHT22;4624;48.126;11.546;2022-12-18T03:05:45;-3.80;99.90
9179;DHT22;4624;48.126;11.546;2022-12-18T03:08:20;-3.80;99.90
9179;DHT22;4624;48.126;11.546;2022-12-18T03:10:57;-3.90;99.90
9179;DHT22;4624;48.126;11.546;2022-12-18T03:13:27;-3.90;99.90
9179;DHT22;4624;48.126;11.546;2022-12-18T03:15:59;-3.90;99.90
9179;DHT22;4624;48.126;11.546;2022-12-18T03:18:30;-4.00;99.90
9179;DHT22;4624;48.126;11.546;2022-12-18T03:21:01;-4.00;99.90
9179;DHT22;4624;48.126;11.546;2022-12-18T03:23:35;-4.00;99.90
9179;DHT22;4624;48.126;11.546;2022-12-18T03:26:07;-4.00;99.90
9179;DHT22;4624;48.126;11.546;2022-12-18T03:28:37;-4.00;99.90
9179;DHT22;4624;48.126;11.546;2022-12-18T03:31:08;-3.90;99.90
9179;DHT22;4624;48.126;11.546;2022-12-18T03:33:39;-3.90;99.90
9179;DHT22;4624;48.126;11.546;2022-12-18T03:36:08;-3.90;99.90
9179;DHT22;4624;48.126;11.546;2022-12-18T03:38:35;-3.90;99.90
9179;DHT22;4624;48.126;11.546;2022-12-18T03:41:07;-3.80;99.90
9179;DHT22;4624;48.126;11.546;2022-12-18T03:43:43;-3.80;99.90
9179;DHT22;4624;48.126;11.546;2022-12-18T03:46:22;-3.80;99.90
9179;DHT22;4624;48.126;11.546;2022-12-18T03:48:57;-3.80;99.90
9179;DHT22;4624;48.126;11.546;2022-12-18T03:51:34;-3.80;99.90
9179;DHT22;4624;48.126;11.546;2022-12-18T03:54:04;-3.80;99.90
9179;DHT22;4624;48.126;11.546;2022-12-18T03:56:35;-3.80;99.90
9179;DHT22;4624;48.126;11.546;2022-12-18T03:59:04;-3.80;99.90
9179;DHT22;4624;48.126;11.546;2022-12-18T04:01:36;-3.80;99.90
9179;DHT22;4624;48.126;11.546;2022-12-18T04:04:05;-3.80;99.90
9179;DHT22;4624;48.126;11.546;2022-12-18T04:06:35;-3.70;99.90
9179;DHT22;4624;48.126;11.546;2022-12-18T04:09:03;-3.70;99.90
9179;DHT22;4624;48.126;11.546;2022-12-18T04:11:30;-3.70;99.90
9179;DHT22;4624;48.126;11.546;2022-12-18T04:13:58;-3.70;99.90
9179;DHT22;4624;48.126;11.546;2022-12-18T04:16:24;-3.70;99.90
9179;DHT22;4624;48.126;11.546;2022-12-18T04:18:53;-3.60;99.90
9179;DHT22;4624;48.126;11.546;2022-12-18T04:21:20;-3.70;99.90
9179;DHT22;4624;48.126;11.546;2022-12-18T04:23:48;-3.70;99.90
9179;DHT22;4624;48.126;11.546;2022-12-18T04:26:14;-3.70;99.90
9179;DHT22;4624;48.126;11.546;2022-12-18T04:28:41;-3.70;99.90
9179;DHT22;4624;48.126;11.546;2022-12-18T04:31:08;-3.70;99.90
9179;DHT22;4624;48.126;11.546;2022-12-18T04:33:35;-3.60;99.90
9179;DHT22;4624;48.126;11.546;2022-12-18T04:36:03;-3.70;99.90
9179;DHT22;4624;48.126;11.546;2022-12-18T04:38:30;-3.60;99.90
9179;DHT22;4624;48.126;11.546;2022-12-18T04:40:57;-3.60;99.90
9179;DHT22;4624;48.126;11.546;2022-12-18T04:43:24;-3.70;99.90
9179;DHT22;4624;48.126;11.546;2022-12-18T04:45:51;-3.70;99.90
9179;DHT22;4624;48.126;11.546;2022-12-18T04:48:18;-3.70;99.90
9179;DHT22;4624;48.126;11.546;2022-12-18T04:50:46;-3.70;99.90
9179;DHT22;4624;48.126;11.546;2022-12-18T04:53:15;-3.70;99.90
9179;DHT22;4624;48.126;11.546;2022-12-18T04:55:42;-3.70;99.90
9179;DHT22;4624;48.126;11.546;2022-12-18T04:58:08;-3.70;99.90
9179;DHT22;4624;48.126;11.546;2022-12-18T05:00:35;-3.70;99.90
9179;DHT22;4624;48.126;11.546;2022-12-18T05:03:02;-3.70;99.90
9179;DHT22;4624;48.126;11.546;2022-12-18T05:05:29;-3.70;99.90
9179;DHT22;4624;48.126;11.546;2022-12-18T05:07:55;-3.70;99.90
9179;DHT22;4624;48.126;11.546;2022-12-18T05:10:23;-3.80;99.90
9179;DHT22;4624;48.126;11.546;2022-12-18T05:12:50;-3.80;99.90
9179;DHT22;4624;48.126;11.546;2022-12-18T05:15:27;-3.80;99.90
9179;DHT22;4624;48.126;11.546;2022-12-18T05:17:54;-3.90;99.90
9179;DHT22;4624;48.126;11.546;2022-12-18T05:20:21;-3.80;99.90
9179;DHT22;4624;48.126;11.546;2022-12-18T05:22:48;-3.80;99.90
9179;DHT22;4624;48.126;11.546;2022-12-18T05:25:15;-3.80;99.90
9179;DHT22;4624;48.126;11.546;2022-12-18T05:27:43;-3.80;99.90
9179;DHT22;4624;48.126;11.546;2022-12-18T05:30:11;-3.90;99.90
9179;DHT22;4624;48.126;11.546;2022-12-18T05:32:38;-3.90;99.90
9179;DHT22;4624;48.126;11.546;2022-12-18T05:35:07;-3.90;99.90
9179;DHT22;4624;48.126;11.546;2022-12-18T05:37:34;-3.90;99.90
9179;DHT22;4624;48.126;11.546;2022-12-18T05:40:01;-3.90;99.90
9179;DHT22;4624;48.126;11.546;2022-12-18T05:42:27;-3.90;99.90
9179;DHT22;4624;48.126;11.546;2022-12-18T05:44:56;-3.80;99.90
9179;DHT22;4624;48.126;11.546;2022-12-18T05:47:22;-3.80;99.90
9179;DHT22;4624;48.126;11.546;2022-12-18T05:49:49;-3.80;99.90
9179;DHT22;4624;48.126;11.546;2022-12-18T05:52:16;-3.80;99.90
9179;DHT22;4624;48.126;11.546;2022-12-18T05:54:42;-3.80;99.90
9179;DHT22;4624;48.126;11.546;2022-12-18T05:57:09;-3.80;99.90
9179;DHT22;4624;48.126;11.546;2022-12-18T05:59:36;-3.80;99.90
9179;DHT22;4624;48.126;11.546;2022-12-18T06:02:04;-3.80;99.90
9179;DHT22;4624;48.126;11.546;2022-12-18T06:04:31;-3.80;99.90
9179;DHT22;4624;48.126;11.546;2022-12-18T06:06:58;-3.80;99.90
9179;DHT22;4624;48.126;11.546;2022-12-18T06:09:32;-3.80;99.90
9179;DHT22;4624;48.126;11.546;2022-12-18T06:11:59;-3.80;99.90
9179;DHT22;4624;48.126;11.546;2022-12-18T06:14:26;-3.90;99.90
9179;DHT22;4624;48.126;11.546;2022-12-18T06:16:53;-3.90;99.90
9179;DHT22;4624;48.126;11.546;2022-12-18T06:19:21;-3.90;99.90
9179;DHT22;4624;48.126;11.546;2022-12-18T06:21:47;-3.90;99.90
9179;DHT22;4624;48.126;11.546;2022-12-18T06:24:16;-4.00;99.90
9179;DHT22;4624;48.126;11.546;2022-12-18T06:26:42;-4.00;99.90
9179;DHT22;4624;48.126;11.546;2022-12-18T06:29:09;-4.00;99.90
9179;DHT22;4624;48.126;11.546;2022-12-18T06:31:36;-4.00;99.90
9179;DHT22;4624;48.126;11.546;2022-12-18T06:34:03;-4.00;99.90
9179;DHT22;4624;48.126;11.546;2022-12-18T06:36:32;-4.00;99.90
9179;DHT22;4624;48.126;11.546;2022-12-18T06:38:58;-4.00;99.90
9179;DHT22;4624;48.126;11.546;2022-12-18T06:41:25;-4.00;99.90
9179;DHT22;4624;48.126;11.546;2022-12-18T06:43:52;-4.10;99.90
9179;DHT22;4624;48.126;11.546;2022-12-18T06:46:19;-4.00;99.90
9179;DHT22;4624;48.126;11.546;2022-12-18T06:48:49;-4.00;99.90
9179;DHT22;4624;48.126;11.546;2022-12-18T06:51:18;-3.90;99.90
9179;DHT22;4624;48.126;11.546;2022-12-18T06:53:46;-3.90;99.90
9179;DHT22;4624;48.126;11.546;2022-12-18T06:56:13;-3.90;99.90
9179;DHT22;4624;48.126;11.546;2022-12-18T06:58:40;-3.90;99.90
9179;DHT22;4624;48.126;11.546;2022-12-18T07:01:08;-4.00;99.90
9179;DHT22;4624;48.126;11.546;2022-12-18T07:03:36;-4.00;99.90
9179;DHT22;4624;48.126;11.546;2022-12-18T07:06:03;-4.00;99.90
9179;DHT22;4624;48.126;11.546;2022-12-18T07:08:31;-4.00;99.90
9179;DHT22;4624;48.126;11.546;2022-12-18T07:10:59;-3.90;99.90
9179;DHT22;4624;48.126;11.546;2022-12-18T07:13:29;-3.90;99.90
9179;DHT22;4624;48.126;11.546;2022-12-18T07:15:55;-3.90;99.90
9179;DHT22;4624;48.126;11.546;2022-12-18T07:18:28;-3.90;99.90
9179;DHT22;4624;48.126;11.546;2022-12-18T07:20:55;-3.90;99.90
9179;DHT22;4624;48.126;11.546;2022-12-18T07:23:22;-3.90;99.90
9179;DHT22;4624;48.126;11.546;2022-12-18T07:25:49;-3.80;99.90
9179;DHT22;4624;48.126;11.546;2022-12-18T07:28:17;-3.80;99.90
9179;DHT22;4624;48.126;11.546;2022-12-18T07:30:43;-3.80;99.90
9179;DHT22;4624;48.126;11.546;2022-12-18T07:33:10;-3.70;99.90
9179;DHT22;4624;48.126;11.546;2022-12-18T07:35:37;-3.70;99.90
9179;DHT22;4624;48.126;11.546;2022-12-18T07:38:04;-3.70;99.90
9179;DHT22;4624;48.126;11.546;2022-12-18T07:40:30;-3.60;99.90
9179;DHT22;4624;48.126;11.546;2022-12-18T07:42:57;-3.70;99.90
9179;DHT22;4624;48.126;11.546;2022-12-18T07:45:25;-3.70;99.90
9179;DHT22;4624;48.126;11.546;2022-12-18T07:47:52;-3.70;99.90
9179;DHT22;4624;48.126;11.546;2022-12-18T07:50:19;-3.70;99.90
9179;DHT22;4624;48.126;11.546;2022-12-18T07:52:45;-3.80;99.90
9179;DHT22;4624;48.126;11.546;2022-12-18T07:55:12;-3.80;99.90
9179;DHT22;4624;48.126;11.546;2022-12-18T07:57:39;-3.80;99.90
9179;DHT22;4624;48.126;11.546;2022-12-18T08:00:07;-3.80;99.90
9179;DHT22;4624;48.126;11.546;2022-12-18T08:02:35;-3.90;99.90
9179;DHT22;4624;48.126;11.546;2022-12-18T08:05:02;-3.90;99.90
9179;DHT22;4624;48.126;11.546;2022-12-18T08:07:29;-3.90;99.90
9179;DHT22;4624;48.126;11.546;2022-12-18T08:09:55;-4.00;99.90
9179;DHT22;4624;48.126;11.546;2022-12-18T08:12:22;-4.00;99.90
9179;DHT22;4624;48.126;11.546;2022-12-18T08:14:49;-4.10;99.90
9179;DHT22;4624;48.126;11.546;2022-12-18T08:17:15;-4.10;99.90
9179;DHT22;4624;48.126;11.546;2022-12-18T08:19:44;-4.10;99.90
9179;DHT22;4624;48.126;11.546;2022-12-18T08:22:10;-4.00;99.90
9179;DHT22;4624;48.126;11.546;2022-12-18T08:24:37;-4.00;99.90
9179;DHT22;4624;48.126;11.546;2022-12-18T08:27:04;-4.00;99.90
9179;DHT22;4624;48.126;11.546;2022-12-18T08:29:30;-4.00;99.90
9179;DHT22;4624;48.126;11.546;2022-12-18T08:31:59;-3.90;99.90
9179;DHT22;4624;48.126;11.546;2022-12-18T08:34:26;-3.90;99.90
9179;DHT22;4624;48.126;11.546;2022-12-18T08:36:54;-3.80;99.90
9179;DHT22;4624;48.126;11.546;2022-12-18T08:39:21;-3.80;99.90
9179;DHT22;4624;48.126;11.546;2022-12-18T08:41:47;-3.70;99.90
9179;DHT22;4624;48.126;11.546;2022-12-18T08:44:28;-3.70;99.90
9179;DHT22;4624;48.126;11.546;2022-12-18T08:47:04;-3.70;99.90
9179;DHT22;4624;48.126;11.546;2022-12-18T08:49:31;-3.70;99.90
9179;DHT22;4624;48.126;11.546;2022-12-18T08:51:59;-3.70;99.90
9179;DHT22;4624;48.126;11.546;2022-12-18T08:54:28;-3.70;99.90
9179;DHT22;4624;48.126;11.546;2022-12-18T08:56:55;-3.70;99.90
9179;DHT22;4624;48.126;11.546;2022-12-18T08:59:22;-3.60;99.90
9179;DHT22;4624;48.126;11.546;2022-12-18T09:01:49;-3.50;99.90
9179;DHT22;4624;48.126;11.546;2022-12-18T09:04:16;-3.50;99.90
9179;DHT22;4624;48.126;11.546;2022-12-18T09:06:43;-3.50;99.90
9179;DHT22;4624;48.126;11.546;2022-12-18T09:09:11;-3.50;99.90
9179;DHT22;4624;48.126;11.546;2022-12-18T09:11:38;-3.60;99.90
9179;DHT22;4624;48.126;11.546;2022-12-18T09:14:05;-3.60;99.90
9179;DHT22;4624;48.126;11.546;2022-12-18T09:16:32;-3.60;99.90
9179;DHT22;4624;48.126;11.546;2022-12-18T09:19:01;-3.50;99.90
9179;DHT22;4624;48.126;11.546;2022-12-18T09:21:30;-3.50;99.90
9179;DHT22;4624;48.126;11.546;2022-12-18T09:23:57;-3.50;99.90
9179;DHT22;4624;48.126;11.546;2022-12-18T09:26:26;-3.40;99.90
9179;DHT22;4624;48.126;11.546;2022-12-18T09:28:53;-3.40;99.90
9179;DHT22;4624;48.126;11.546;2022-12-18T09:31:22;-3.30;99.90
9179;DHT22;4624;48.126;11.546;2022-12-18T09:33:49;-3.20;99.90
9179;DHT22;4624;48.126;11.546;2022-12-18T09:36:17;-3.20;99.90
9179;DHT22;4624;48.126;11.546;2022-12-18T09:38:44;-3.20;99.90
9179;DHT22;4624;48.126;11.546;2022-12-18T09:41:23;-3.30;99.90
9179;DHT22;4624;48.126;11.546;2022-12-18T09:43:58;-3.30;99.90
9179;DHT22;4624;48.126;11.546;2022-12-18T09:46:29;-3.20;99.90
9179;DHT22;4624;48.126;11.546;2022-12-18T09:48:59;-3.20;99.90
9179;DHT22;4624;48.126;11.546;2022-12-18T09:51:30;-3.20;99.90
9179;DHT22;4624;48.126;11.546;2022-12-18T09:54:01;-3.20;99.90
9179;DHT22;4624;48.126;11.546;2022-12-18T09:56:34;-3.20;99.90
9179;DHT22;4624;48.126;11.546;2022-12-18T09:59:04;-3.30;99.90
9179;DHT22;4624;48.126;11.546;2022-12-18T10:01:32;-3.20;99.90
9179;DHT22;4624;48.126;11.546;2022-12-18T10:03:59;-3.20;99.90
9179;DHT22;4624;48.126;11.546;2022-12-18T10:06:32;-3.10;99.90
9179;DHT22;4624;48.126;11.546;2022-12-18T10:09:06;-3.10;99.90
9179;DHT22;4624;48.126;11.546;2022-12-18T10:11:39;-3.10;99.90
9179;DHT22;4624;48.126;11.546;2022-12-18T10:14:11;-3.00;99.90
9179;DHT22;4624;48.126;11.546;2022-12-18T10:16:45;-3.00;99.90
9179;DHT22;4624;48.126;11.546;2022-12-18T10:19:37;-3.00;99.90
9179;DHT22;4624;48.126;11.546;2022-12-18T10:22:15;-3.10;99.90
9179;DHT22;4624;48.126;11.546;2022-12-18T10:24:49;-3.10;99.90
9179;DHT22;4624;48.126;11.546;2022-12-18T10:27:22;-3.20;99.90
9179;DHT22;4624;48.126;11.546;2022-12-18T10:29:51;-3.20;99.90
9179;DHT22;4624;48.126;11.546;2022-12-18T10:32:20;-3.10;99.90
9179;DHT22;4624;48.126;11.546;2022-12-18T10:34:47;-3.00;99.90
9179;DHT22;4624;48.126;11.546;2022-12-18T10:37:17;-3.00;99.90
9179;DHT22;4624;48.126;11.546;2022-12-18T10:39:45;-2.90;99.90
9179;DHT22;4624;48.126;11.546;2022-12-18T10:42:16;-3.00;99.90
9179;DHT22;4624;48.126;11.546;2022-12-18T10:44:44;-3.00;99.90
9179;DHT22;4624;48.126;11.546;2022-12-18T10:47:15;-2.90;99.90
9179;DHT22;4624;48.126;11.546;2022-12-18T10:49:49;-2.90;99.90
9179;DHT22;4624;48.126;11.546;2022-12-18T10:52:18;-2.90;99.90
9179;DHT22;4624;48.126;11.546;2022-12-18T10:54:50;-2.90;99.90
9179;DHT22;4624;48.126;11.546;2022-12-18T10:57:30;-2.90;99.90
9179;DHT22;4624;48.126;11.546;2022-12-18T10:59:59;-2.80;99.90
9179;DHT22;4624;48.126;11.546;2022-12-18T11:02:33;-2.80;99.90
9179;DHT22;4624;48.126;11.546;2022-12-18T11:05:01;-2.70;99.90
9179;DHT22;4624;48.126;11.546;2022-12-18T11:07:47;-2.70;99.90
9179;DHT22;4624;48.126;11.546;2022-12-18T11:10:16;-2.70;99.90
9179;DHT22;4624;48.126;11.546;2022-12-18T11:12:44;-2.60;99.90
9179;DHT22;4624;48.126;11.546;2022-12-18T11:15:15;-2.60;99.90
9179;DHT22;4624;48.126;11.546;2022-12-18T11:17:46;-2.60;99.90
9179;DHT22;4624;48.126;11.546;2022-12-18T11:20:21;-2.50;99.90
9179;DHT22;4624;48.126;11.546;2022-12-18T11:22:56;-2.50;99.90
9179;DHT22;4624;48.126;11.546;2022-12-18T11:25:23;-2.50;99.90
9179;DHT22;4624;48.126;11.546;2022-12-18T11:27:53;-2.60;99.90
9179;DHT22;4624;48.126;11.546;2022-12-18T11:30:23;-2.60;99.90
9179;DHT22;4624;48.126;11.546;2022-12-18T11:32:54;-2.50;99.90
9179;DHT22;4624;48.126;11.546;2022-12-18T11:35:40;-2.50;99.90
9179;DHT22;4624;48.126;11.546;2022-12-18T11:38:20;-2.50;99.90
9179;DHT22;4624;48.126;11.546;2022-12-18T11:40:53;-2.50;99.90
9179;DHT22;4624;48.126;11.546;2022-12-18T11:43:26;-2.50;99.90
9179;DHT22;4624;48.126;11.546;2022-12-18T11:45:56;-2.40;99.90
9179;DHT22;4624;48.126;11.546;2022-12-18T11:48:29;-2.30;99.90
9179;DHT22;4624;48.126;11.546;2022-12-18T11:50:58;-2.30;99.90
9179;DHT22;4624;48.126;11.546;2022-12-18T11:53:27;-2.30;99.90
9179;DHT22;4624;48.126;11.546;2022-12-18T11:56:04;-2.20;99.90
9179;DHT22;4624;48.126;11.546;2022-12-18T11:58:44;-2.20;99.90
9179;DHT22;4624;48.126;11.546;2022-12-18T12:01:18;-2.30;99.90
9179;DHT22;4624;48.126;11.546;2022-12-18T12:06:47;-2.20;99.90
9179;DHT22;4624;48.126;11.546;2022-12-18T12:09:20;-2.20;99.90
9179;DHT22;4624;48.126;11.546;2022-12-18T12:11:56;-2.20;99.90
9179;DHT22;4624;48.126;11.546;2022-12-18T12:14:41;-2.20;99.90
9179;DHT22;4624;48.126;11.546;2022-12-18T12:17:17;-2.30;99.90
9179;DHT22;4624;48.126;11.546;2022-12-18T12:19:52;-2.30;99.90
9179;DHT22;4624;48.126;11.546;2022-12-18T12:22:26;-2.40;99.90
9179;DHT22;4624;48.126;11.546;2022-12-18T12:25:07;-2.40;99.90
9179;DHT22;4624;48.126;11.546;2022-12-18T12:27:44;-2.40;99.90
9179;DHT22;4624;48.126;11.546;2022-12-18T12:30:18;-2.40;99.90
9179;DHT22;4624;48.126;11.546;2022-12-18T12:32:56;-2.40;99.90
9179;DHT22;4624;48.126;11.546;2022-12-18T12:35:34;-2.40;99.90
9179;DHT22;4624;48.126;11.546;2022-12-18T12:38:09;-2.50;99.90
9179;DHT22;4624;48.126;11.546;2022-12-18T12:40:39;-2.50;99.90
9179;DHT22;4624;48.126;11.546;2022-12-18T12:43:19;-2.60;99.90
9179;DHT22;4624;48.126;11.546;2022-12-18T12:45:49;-2.60;99.90
9179;DHT22;4624;48.126;11.546;2022-12-18T12:48:21;-2.80;99.90
9179;DHT22;4624;48.126;11.546;2022-12-18T12:50:52;-2.90;99.90
9179;DHT22;4624;48.126;11.546;2022-12-18T12:53:25;-2.90;99.90
9179;DHT22;4624;48.126;11.546;2022-12-18T12:55:52;-3.00;99.90
9179;DHT22;4624;48.126;11.546;2022-12-18T12:58:25;-3.00;99.90
9179;DHT22;4624;48.126;11.546;2022-12-18T13:01:03;-3.00;99.90
9179;DHT22;4624;48.126;11.546;2022-12-18T13:03:41;-3.00;99.90
9179;DHT22;4624;48.126;11.546;2022-12-18T13:06:14;-2.90;99.90
9179;DHT22;4624;48.126;11.546;2022-12-18T13:08:55;-2.80;99.90
9179;DHT22;4624;48.126;11.546;2022-12-18T13:11:39;-2.80;99.90
9179;DHT22;4624;48.126;11.546;2022-12-18T13:14:27;-2.70;99.90
9179;DHT22;4624;48.126;11.546;2022-12-18T13:17:14;-2.60;99.90
9179;DHT22;4624;48.126;11.546;2022-12-18T13:19:41;-2.50;99.90
9179;DHT22;4624;48.126;11.546;2022-12-18T13:22:22;-2.50;99.90
9179;DHT22;4624;48.126;11.546;2022-12-18T13:24:49;-2.40;99.90
9179;DHT22;4624;48.126;11.546;2022-12-18T13:27:54;-2.50;99.90
9179;DHT22;4624;48.126;11.546;2022-12-18T13:30:44;-2.50;99.90
9179;DHT22;4624;48.126;11.546;2022-12-18T13:36:27;-2.80;99.90
9179;DHT22;4624;48.126;11.546;2022-12-18T13:39:21;-2.90;99.90
9179;DHT22;4624;48.126;11.546;2022-12-18T13:41:50;-3.00;99.90
9179;DHT22;4624;48.126;11.546;2022-12-18T13:44:31;-3.10;99.90
9179;DHT22;4624;48.126;11.546;2022-12-18T13:46:59;-3.20;99.90
9179;DHT22;4624;48.126;11.546;2022-12-18T13:49:35;-3.30;99.90
9179;DHT22;4624;48.126;11.546;2022-12-18T13:52:15;-3.40;99.90
9179;DHT22;4624;48.126;11.546;2022-12-18T13:54:47;-3.40;99.90
9179;DHT22;4624;48.126;11.546;2022-12-18T13:57:26;-3.50;99.90
9179;DHT22;4624;48.126;11.546;2022-12-18T13:59:53;-3.40;99.90
9179;DHT22;4624;48.126;11.546;2022-12-18T14:02:22;-3.40;99.90
9179;DHT22;4624;48.126;11.546;2022-12-18T14:04:50;-3.40;99.90
9179;DHT22;4624;48.126;11.546;2022-12-18T14:07:19;-3.40;99.90
9179;DHT22;4624;48.126;11.546;2022-12-18T14:09:50;-3.40;99.90
9179;DHT22;4624;48.126;11.546;2022-12-18T14:12:20;-3.40;99.90
9179;DHT22;4624;48.126;11.546;2022-12-18T14:15:22;-3.50;99.90
9179;DHT22;4624;48.126;11.546;2022-12-18T14:17:51;-3.60;99.90
9179;DHT22;4624;48.126;11.546;2022-12-18T14:20:18;-3.60;99.90
9179;DHT22;4624;48.126;11.546;2022-12-18T14:22:47;-3.60;99.90
9179;DHT22;4624;48.126;11.546;2022-12-18T14:25:18;-3.70;99.90
9179;DHT22;4624;48.126;11.546;2022-12-18T14:27:48;-3.60;99.90
9179;DHT22;4624;48.126;11.546;2022-12-18T14:30:27;-3.60;99.90
9179;DHT22;4624;48.126;11.546;2022-12-18T14:33:04;-3.50;99.90
9179;DHT22;4624;48.126;11.546;2022-12-18T14:35:32;-3.40;99.90
9179;DHT22;4624;48.126;11.546;2022-12-18T14:38:23;-3.50;99.90
9179;DHT22;4624;48.126;11.546;2022-12-18T14:40:59;-3.40;99.90
9179;DHT22;4624;48.126;11.546;2022-12-18T14:43:27;-3.50;99.90
9179;DHT22;4624;48.126;11.546;2022-12-18T14:45:55;-3.60;99.90
9179;DHT22;4624;48.126;11.546;2022-12-18T14:48:30;-3.60;99.90
9179;DHT22;4624;48.126;11.546;2022-12-18T14:51:00;-3.60;99.90
9179;DHT22;4624;48.126;11.546;2022-12-18T14:53:33;-3.60;99.90
9179;DHT22;4624;48.126;11.546;2022-12-18T14:56:03;-3.60;99.90
9179;DHT22;4624;48.126;11.546;2022-12-18T14:58:30;-3.70;99.90
9179;DHT22;4624;48.126;11.546;2022-12-18T15:00:57;-3.70;99.90
9179;DHT22;4624;48.126;11.546;2022-12-18T15:03:24;-3.70;99.90
9179;DHT22;4624;48.126;11.546;2022-12-18T15:05:51;-3.70;99.90
9179;DHT22;4624;48.126;11.546;2022-12-18T15:08:34;-3.70;99.90
9179;DHT22;4624;48.126;11.546;2022-12-18T15:11:03;-3.70;99.90
9179;DHT22;4624;48.126;11.546;2022-12-18T15:13:30;-3.70;99.90
9179;DHT22;4624;48.126;11.546;2022-12-18T15:15:58;-3.70;99.90
9179;DHT22;4624;48.126;11.546;2022-12-18T15:18:31;-3.70;99.90
9179;DHT22;4624;48.126;11.546;2022-12-18T15:21:03;-3.70;99.90
9179;DHT22;4624;48.126;11.546;2022-12-18T15:23:36;-3.70;99.90
9179;DHT22;4624;48.126;11.546;2022-12-18T15:26:07;-3.70;99.90
9179;DHT22;4624;48.126;11.546;2022-12-18T15:28:38;-3.80;99.90
9179;DHT22;4624;48.126;11.546;2022-12-18T15:31:17;-3.80;99.90
9179;DHT22;4624;48.126;11.546;2022-12-18T15:34:10;-3.80;99.90
9179;DHT22;4624;48.126;11.546;2022-12-18T15:36:38;-3.80;99.90
9179;DHT22;4624;48.126;11.546;2022-12-18T15:39:05;-3.80;99.90
9179;DHT22;4624;48.126;11.546;2022-12-18T15:41:34;-3.80;99.90
9179;DHT22;4624;48.126;11.546;2022-12-18T15:44:01;-3.70;99.90
9179;DHT22;4624;48.126;11.546;2022-12-18T15:46:27;-3.70;99.90
9179;DHT22;4624;48.126;11.546;2022-12-18T15:48:55;-3.70;99.90
9179;DHT22;4624;48.126;11.546;2022-12-18T15:51:26;-3.80;99.90
9179;DHT22;4624;48.126;11.546;2022-12-18T15:53:55;-3.70;99.90
9179;DHT22;4624;48.126;11.546;2022-12-18T15:56:22;-3.70;99.90
9179;DHT22;4624;48.126;11.546;2022-12-18T15:59:11;-3.80;99.90
9179;DHT22;4624;48.126;11.546;2022-12-18T16:01:39;-3.80;99.90
9179;DHT22;4624;48.126;11.546;2022-12-18T16:04:06;-3.80;99.90
9179;DHT22;4624;48.126;11.546;2022-12-18T16:06:33;-3.90;99.90
9179;DHT22;4624;48.126;11.546;2022-12-18T16:09:00;-3.90;99.90
9179;DHT22;4624;48.126;11.546;2022-12-18T16:11:28;-4.00;99.90